Time;durP1;ratioP1;P1;durP2;ratioP2;P2;SDS_P1;SDS_P2;PMS_P1;PMS_P2;Temp;Humidity;BMP_temperature;BMP_pressure;BME280_temperature;BME280_humidity;BME280_pressure;Samples;Min_cycle;Max_cycle;Signal;HPM_P1;HPM_P2
2022/12/20 00:02:07;;;;;;;24.47;16.93;;;;;;;7.81;59.63;99368.38;7102088;27;20279;-82
2022/12/20 00:05:29;;;;;;;22.97;15.50;;;;;;;7.74;59.82;99340.56;7101703;27;20198;-82
2022/12/20 00:08:57;;;;;;;24.97;16.47;;;;;;;7.55;60.00;99356.22;7102010;27;20228;-82
2022/12/20 00:12:19;;;;;;;24.30;16.33;;;;;;;7.47;60.56;99362.44;7124881;27;20288;-83
2022/12/20 00:15:46;;;;;;;23.33;16.07;;;;;;;7.53;61.53;99352.88;7119774;27;20692;-82
2022/12/20 00:19:09;;;;;;;22.80;16.47;;;;;;;7.24;60.29;99275.69;7100777;27;20292;-82
2022/12/20 00:22:31;;;;;;;25.57;17.43;;;;;;;7.62;60.28;99336.59;7100976;27;20201;-82
2022/12/20 00:26:06;;;;;;;24.13;16.60;;;;;;;7.78;60.28;99324.94;7112664;27;20206;-82
2022/12/20 00:29:31;;;;;;;23.63;15.63;;;;;;;7.79;59.55;99331.97;7100096;27;20235;-82
2022/12/20 00:32:53;;;;;;;22.53;15.77;;;;;;;7.80;59.49;99320.22;7100305;27;20228;-85
2022/12/20 00:36:16;;;;;;;24.47;16.17;;;;;;;7.64;59.77;99320.28;7099047;27;20207;-84
2022/12/20 00:39:38;;;;;;;24.63;16.27;;;;;;;7.34;60.85;99305.84;7098709;27;20232;-82
2022/12/20 00:43:01;;;;;;;20.47;15.43;;;;;;;7.63;59.94;99316.78;7127443;27;20217;-81
2022/12/20 00:46:23;;;;;;;22.37;15.30;;;;;;;7.51;60.14;99322.69;7128079;27;20221;-81
2022/12/20 00:49:48;;;;;;;22.63;16.20;;;;;;;7.20;61.85;99311.88;7128679;27;20588;-82
2022/12/20 00:53:15;;;;;;;20.90;14.60;;;;;;;6.99;60.76;99251.78;7132271;27;20594;-81
2022/12/20 00:56:39;;;;;;;22.87;14.90;;;;;;;7.38;60.69;99322.41;7131206;27;20199;-82
2022/12/20 01:00:03;;;;;;;22.40;15.57;;;;;;;7.55;60.25;99295.34;7130720;27;20232;-82
2022/12/20 01:03:25;;;;;;;21.50;15.33;;;;;;;7.61;60.35;99326.03;7131940;27;20206;-81
2022/12/20 01:06:47;;;;;;;22.10;14.77;;;;;;;7.59;61.17;99330.72;7131341;27;20215;-82
2022/12/20 01:10:11;;;;;;;17.57;14.07;;;;;;;8.06;60.92;99308.16;7128606;27;20295;-82
2022/12/20 01:13:35;;;;;;;19.40;13.77;;;;;;;8.14;60.15;99296.56;7104036;27;20207;-82
2022/12/20 01:16:58;;;;;;;16.37;12.47;;;;;;;7.92;60.55;99273.19;7120983;27;20211;-82
2022/12/20 01:20:20;;;;;;;17.67;12.77;;;;;;;8.28;60.68;99312.78;7130645;27;20240;-82
2022/12/20 01:23:43;;;;;;;14.90;11.90;;;;;;;8.30;59.97;99326.03;7103988;27;20204;-82
2022/12/20 01:27:13;;;;;;;15.27;11.67;;;;;;;8.35;59.97;99321.78;7105109;27;20217;-82
2022/12/20 01:31:12;;;;;;;16.53;11.93;;;;;;;8.46;59.48;99320.53;7105342;27;20247;-82
2022/12/20 01:34:38;;;;;;;15.50;12.10;;;;;;;7.48;61.03;99313.16;7104000;27;20232;-82
2022/12/20 01:38:00;;;;;;;15.13;11.67;;;;;;;7.81;61.91;99330.78;7105851;27;20188;-82
2022/12/20 01:41:26;;;;;;;17.57;12.87;;;;;;;8.42;60.17;99322.72;7105276;27;20231;-82
2022/12/20 01:44:58;;;;;;;18.47;13.23;;;;;;;8.54;58.73;99317.78;7075863;27;20219;-82
2022/12/20 01:48:31;;;;;;;15.67;12.83;;;;;;;8.32;59.44;99305.19;7131619;27;20203;-82
2022/12/20 01:52:11;;;;;;;16.53;13.30;;;;;;;7.28;62.14;99305.66;7128485;27;20230;-82
2022/12/20 01:55:46;;;;;;;16.87;13.00;;;;;;;8.12;60.06;99291.34;7127976;27;20203;-82
2022/12/20 01:59:11;;;;;;;16.77;12.70;;;;;;;7.61;61.48;99299.19;7129599;27;20249;-82
2022/12/20 02:02:32;;;;;;;19.33;13.77;;;;;;;7.92;60.54;99295.50;7128994;27;20793;-82
2022/12/20 02:05:56;;;;;;;23.07;13.57;;;;;;;7.60;62.09;99265.31;7129098;27;20226;-82
2022/12/20 02:09:19;;;;;;;17.93;12.30;;;;;;;8.48;60.63;99283.59;7128426;27;20219;-82
2022/12/20 02:12:43;;;;;;;17.57;12.50;;;;;;;8.36;59.42;99268.91;7128049;27;20209;-82
2022/12/20 02:16:05;;;;;;;15.33;11.70;;;;;;;8.62;59.45;99280.94;7127573;27;20214;-82
2022/12/20 02:19:44;;;;;;;17.67;12.60;;;;;;;8.27;59.37;99254.69;7127378;27;20229;-82
2022/12/20 02:23:20;;;;;;;17.63;12.57;;;;;;;8.56;59.15;99264.69;7128430;27;20212;-82
2022/12/20 02:27:21;;;;;;;18.37;12.93;;;;;;;8.49;59.03;99264.56;7125665;27;20537;-82
2022/12/20 02:30:46;;;;;;;17.23;12.00;;;;;;;8.00;59.92;99268.59;7127672;27;20215;-82
2022/12/20 02:34:09;;;;;;;19.17;12.50;;;;;;;8.37;59.86;99254.44;7128843;27;20215;-82
2022/12/20 02:37:31;;;;;;;16.73;12.47;;;;;;;8.62;58.75;99248.69;7125826;27;20233;-82
2022/12/20 02:40:58;;;;;;;17.50;12.07;;;;;;;8.56;58.27;99240.50;7119299;27;20310;-82
2022/12/20 02:48:21;;;;;;;20.90;12.03;;;;;;;8.41;59.18;99243.16;7124713;27;20209;-82
2022/12/20 02:52:00;;;;;;;;;;;;;;;;;;;;;
2022/12/20 02:55:44;;;;;;;17.73;13.10;;;;;;;8.36;58.89;99250.91;7122119;27;20217;-82
2022/12/20 02:59:08;;;;;;;15.87;12.40;;;;;;;7.99;59.63;99242.78;7097809;27;20226;-82
2022/12/20 03:03:21;;;;;;;19.50;14.00;;;;;;;7.53;61.27;99232.13;7097504;27;20202;-82
2022/12/20 03:06:14;;;;;;;16.60;13.23;;;;;;;8.07;60.28;99241.88;7096526;27;20209;-82
2022/12/20 03:09:42;;;;;;;18.07;13.37;;;;;;;7.90;59.71;99254.56;7097936;27;20225;-82
2022/12/20 03:13:12;;;;;;;15.27;12.40;;;;;;;8.11;58.36;99182.25;7097921;27;20408;-82
2022/12/20 03:16:34;;;;;;;17.60;13.13;;;;;;;8.05;59.69;99231.31;7094573;27;20201;-84
2022/12/20 03:19:55;;;;;;;21.20;12.90;;;;;;;8.09;59.14;99243.38;7089247;27;20297;-84
2022/12/20 03:23:18;;;;;;;18.57;13.50;;;;;;;7.65;60.94;99220.84;7089415;27;20211;-84
2022/12/20 03:26:39;;;;;;;18.00;13.10;;;;;;;7.65;61.56;99212.78;7101686;27;20287;-84
2022/12/20 03:30:01;;;;;;;19.80;14.20;;;;;;;7.30;62.27;99234.75;7119224;27;20235;-84
2022/12/20 03:33:22;;;;;;;18.57;13.00;;;;;;;7.33;62.05;99183.47;7118144;27;20822;-84
2022/12/20 03:36:44;;;;;;;18.57;12.83;;;;;;;8.30;60.85;99219.41;7117262;27;20291;-84
2022/12/20 03:40:08;;;;;;;20.83;14.07;;;;;;;8.74;60.61;99198.00;7116459;27;20231;-84
2022/12/20 03:43:30;;;;;;;16.73;13.10;;;;;;;8.42;58.55;99123.91;7086582;27;20749;-84
2022/12/20 03:46:55;;;;;;;24.17;17.33;;;;;;;8.60;57.96;99167.38;7090015;27;20206;-82
2022/12/20 03:50:17;;;;;;;17.27;13.00;;;;;;;8.38;58.49;99210.44;7096944;27;20233;-82
2022/12/20 03:53:51;;;;;;;18.17;12.87;;;;;;;8.58;58.26;99217.81;7095761;28;20220;-82
2022/12/20 03:57:52;;;;;;;17.83;13.37;;;;;;;8.49;58.48;99218.06;7078286;27;20204;-82
2022/12/20 04:01:19;;;;;;;18.10;13.30;;;;;;;8.26;59.30;99193.91;7082765;27;20641;-81
2022/12/20 04:04:41;;;;;;;16.57;12.23;;;;;;;8.22;59.34;99192.63;7097535;27;20211;-82
2022/12/20 04:08:02;;;;;;;15.57;12.73;;;;;;;8.35;58.75;99200.03;7096430;27;20306;-82
2022/12/20 04:11:24;;;;;;;18.03;12.77;;;;;;;8.09;58.71;99175.41;7097540;27;20221;-82
2022/12/20 04:14:47;;;;;;;17.07;13.23;;;;;;;8.03;59.34;99190.41;7096844;27;20223;-82
2022/12/20 04:18:09;;;;;;;22.23;14.70;;;;;;;7.46;60.74;99204.34;7127844;27;20591;-82
2022/12/20 04:21:31;;;;;;;21.53;13.70;;;;;;;6.92;62.50;99192.69;7130359;27;20274;-82
2022/12/20 04:24:53;;;;;;;16.03;12.43;;;;;;;7.96;60.07;99172.50;7130327;27;20264;-82
2022/12/20 04:28:15;;;;;;;18.57;13.37;;;;;;;8.04;59.37;99149.09;7105119;27;20213;-82
2022/12/20 04:31:38;;;;;;;18.33;13.37;;;;;;;7.93;59.46;99157.56;7103140;27;20292;-82
2022/12/20 04:38:39;;;;;;;23.37;16.37;;;;;;;6.98;62.67;99167.03;7088278;27;20231;-82
2022/12/20 04:42:00;;;;;;;26.97;17.87;;;;;;;7.71;60.36;99182.56;7101987;27;20231;-82
2022/12/20 04:45:22;;;;;;;26.07;16.90;;;;;;;7.33;62.07;99185.31;7100355;27;20209;-82
2022/12/20 04:48:45;;;;;;;24.17;16.37;;;;;;;8.02;60.50;99188.69;7100395;27;20225;-82
2022/12/20 04:55:42;;;;;;;24.00;16.37;;;;;;;8.17;58.17;99165.44;7100522;27;20237;-82
2022/12/20 04:59:04;;;;;;;27.37;16.83;;;;;;;8.23;58.42;99171.94;7101925;27;20224;-82
2022/12/20 05:02:25;;;;;;;34.00;20.60;;;;;;;7.85;59.06;99156.81;7117654;27;20224;-82
2022/12/20 05:05:56;;;;;;;23.23;15.70;;;;;;;7.49;59.89;99161.06;7125348;27;20287;-82
2022/12/20 05:09:23;;;;;;;19.83;15.17;;;;;;;6.82;61.85;99102.75;7127872;27;20245;-82
2022/12/20 05:13:09;;;;;;;24.83;16.70;;;;;;;7.28;61.72;99168.91;7127195;27;20222;-82
2022/12/20 05:16:37;;;;;;;19.47;13.87;;;;;;;7.80;60.65;99154.66;7116751;27;20296;-82
2022/12/20 05:20:04;;;;;;;17.07;13.67;;;;;;;7.43;61.85;99143.81;7100036;27;20330;-82
2022/12/20 05:27:24;;;;;;;23.07;15.47;;;;;;;7.63;60.80;99139.69;7099242;27;20192;-84
2022/12/20 05:30:46;;;;;;;18.13;13.00;;;;;;;7.61;61.44;99152.44;7100807;27;20829;-82
2022/12/20 05:34:08;;;;;;;17.70;13.73;;;;;;;7.57;60.94;99137.72;7101024;27;20215;-82
2022/12/20 05:37:30;;;;;;;34.03;21.03;;;;;;;7.55;61.06;99139.72;7099765;27;20204;-83
2022/12/20 05:40:53;;;;;;;29.87;21.27;;;;;;;7.69;60.86;99138.97;7122684;27;20709;-81
2022/12/20 05:44:16;;;;;;;30.90;19.53;;;;;;;7.41;61.33;99127.09;7124078;27;20210;-82
2022/12/20 05:47:37;;;;;;;33.30;21.30;;;;;;;7.38;61.09;99108.66;7125510;27;20223;-82
2022/12/20 05:51:00;;;;;;;32.73;20.50;;;;;;;7.45;61.56;99131.09;7126580;27;20230;-82
2022/12/20 05:54:21;;;;;;;24.00;17.47;;;;;;;7.07;62.41;99113.19;7126673;27;20231;-81
2022/12/20 05:57:44;;;;;;;23.67;15.57;;;;;;;7.59;62.59;99116.06;7128497;27;20236;-82
2022/12/20 06:01:07;;;;;;;19.87;13.70;;;;;;;7.69;61.70;99074.56;7125083;27;20363;-81
2022/12/20 06:04:29;;;;;;;19.40;13.17;;;;;;;7.79;60.20;99023.31;7123843;27;20196;-82
2022/12/20 06:07:50;;;;;;;22.23;15.93;;;;;;;8.14;60.24;99117.44;7126856;27;20232;-81
2022/12/20 06:11:12;;;;;;;18.70;13.67;;;;;;;7.60;62.32;99115.06;7125092;27;20225;-83
2022/12/20 06:14:35;;;;;;;15.67;12.83;;;;;;;8.17;62.03;99111.72;7118911;27;20309;-84
2022/12/20 06:18:00;;;;;;;17.77;12.83;;;;;;;8.32;59.50;99061.53;7121930;27;20231;-81
2022/12/20 06:21:33;;;;;;;17.03;11.93;;;;;;;8.61;58.53;99104.53;7128446;27;20237;-81
2022/12/20 06:24:55;;;;;;;16.53;14.23;;;;;;;8.03;59.07;99093.72;7125930;27;20206;-81
2022/12/20 06:28:20;;;;;;;21.47;16.53;;;;;;;7.54;60.02;99105.88;7128496;27;20220;-81
2022/12/20 06:32:03;;;;;;;25.70;17.57;;;;;;;7.99;60.27;99116.59;7125899;27;20253;-81
2022/12/20 06:36:17;;;;;;;24.00;16.93;;;;;;;8.24;59.50;99127.97;7127539;27;20276;-81
2022/12/20 06:39:42;;;;;;;17.60;13.57;;;;;;;8.40;59.17;99117.91;7074426;27;20231;-81
2022/12/20 06:43:04;;;;;;;22.40;16.57;;;;;;;7.63;58.52;99015.41;7128357;27;20196;-81
2022/12/20 06:46:26;;;;;;;21.40;16.37;;;;;;;7.99;59.12;99121.09;7127028;27;20202;-81
2022/12/20 06:49:49;;;;;;;30.10;18.77;;;;;;;7.84;59.23;99121.06;7127913;27;20741;-82
2022/12/20 06:53:14;;;;;;;28.47;20.23;;;;;;;7.86;59.97;99112.84;7125875;27;20200;-80
2022/12/20 06:56:35;;;;;;;34.33;21.70;;;;;;;8.04;61.24;99132.13;7098500;27;20237;-82
2022/12/20 06:59:57;;;;;;;32.40;22.13;;;;;;;8.10;59.13;99137.63;7097061;27;20362;-83
2022/12/20 07:14:48;;;;;;;30.13;19.77;;;;;;;8.03;59.48;99119.72;7106275;27;20199;-84
2022/12/20 07:18:11;;;;;;;35.63;20.43;;;;;;;8.03;58.66;99099.09;7129189;27;20287;-84
2022/12/20 07:21:33;;;;;;;26.53;18.93;;;;;;;7.51;59.38;99098.19;7129373;27;20488;-83
2022/12/20 07:24:56;;;;;;;29.27;20.43;;;;;;;7.36;60.21;99131.31;7124840;27;20540;-84
2022/12/20 07:28:17;;;;;;;29.77;20.10;;;;;;;7.43;60.85;99114.31;7119871;27;20234;-84
2022/12/20 07:31:39;;;;;;;27.17;18.17;;;;;;;8.03;59.84;99131.31;7126791;27;20204;-87
2022/12/20 07:35:01;;;;;;;26.17;17.33;;;;;;;8.06;59.59;99139.00;7127317;27;20214;-83
2022/12/20 07:38:25;;;;;;;19.97;14.00;;;;;;;8.27;59.36;99135.66;7126599;27;20199;-83
2022/12/20 07:41:49;;;;;;;22.27;15.97;;;;;;;8.17;59.18;99113.56;7127626;27;20223;-82
2022/12/20 07:45:11;;;;;;;23.10;15.93;;;;;;;7.69;59.84;99058.47;7127827;27;20195;-82
2022/12/20 07:48:32;;;;;;;22.50;15.87;;;;;;;7.96;60.86;99129.53;7121797;27;20211;-82
2022/12/20 07:51:56;;;;;;;19.67;15.77;;;;;;;7.09;61.80;99081.72;7120112;27;20196;-82
2022/12/20 07:55:18;;;;;;;17.80;14.60;;;;;;;7.96;60.67;99114.25;7114551;27;20204;-81
2022/12/20 07:58:42;;;;;;;18.63;12.97;;;;;;;8.10;59.58;99096.50;7123561;27;20232;-80
2022/12/20 08:02:18;;;;;;;15.90;11.33;;;;;;;7.97;60.41;99121.31;7122687;27;20236;-80
2022/12/20 08:05:55;;;;;;;16.87;13.23;;;;;;;7.44;62.16;99132.09;7105201;27;20208;-80
2022/12/20 08:09:19;;;;;;;19.13;13.70;;;;;;;7.30;63.55;99132.03;7103628;27;20223;-80
2022/12/20 08:12:42;;;;;;;20.20;14.23;;;;;;;8.00;62.04;99126.31;7120312;27;20199;-80
2022/12/20 08:16:06;;;;;;;17.50;11.93;;;;;;;8.80;59.89;99125.50;7119717;27;20231;-80
2022/12/20 08:19:27;;;;;;;17.43;12.37;;;;;;;8.22;60.59;99128.16;7116481;27;20259;-83
2022/12/20 08:22:57;;;;;;;16.07;12.07;;;;;;;8.68;59.14;99123.47;7113846;27;20755;-82
2022/12/20 08:26:18;;;;;;;15.67;10.67;;;;;;;8.71;58.60;99115.06;7116139;27;20325;-81
2022/12/20 08:29:40;;;;;;;15.00;10.70;;;;;;;8.41;60.03;99111.50;7110205;27;20234;-79
2022/12/20 08:33:02;;;;;;;15.27;11.77;;;;;;;8.75;59.12;99105.56;7110423;27;20705;-79
2022/12/20 08:36:24;;;;;;;19.97;12.80;;;;;;;8.14;60.28;99089.75;7110071;27;20303;-78
2022/12/20 08:39:45;;;;;;;11.43;9.73;;;;;;;8.66;59.92;99107.53;7111531;27;20252;-79
2022/12/20 08:43:07;;;;;;;13.03;10.60;;;;;;;8.67;60.47;99100.31;7112356;27;20290;-79
2022/12/20 08:46:28;;;;;;;13.03;10.27;;;;;;;8.57;60.49;99078.25;7112073;27;20278;-79
2022/12/20 08:49:51;;;;;;;13.97;10.40;;;;;;;9.01;59.48;99077.16;7112473;27;20276;-79
2022/12/20 08:53:13;;;;;;;13.77;10.50;;;;;;;8.78;60.17;99083.72;7113251;27;20295;-79
2022/12/20 08:56:35;;;;;;;19.50;10.43;;;;;;;8.19;61.16;99064.00;7112138;27;20700;-79
2022/12/20 08:59:56;;;;;;;13.87;10.77;;;;;;;8.62;61.38;99068.63;7117234;27;20368;-79
2022/12/20 09:03:18;;;;;;;14.27;10.23;;;;;;;9.21;59.80;99057.53;7118599;27;20346;-78
2022/12/20 09:06:41;;;;;;;11.90;9.83;;;;;;;8.86;60.31;99054.03;7117632;27;20240;-78
2022/12/20 09:10:02;;;;;;;12.37;9.33;;;;;;;9.51;59.61;99052.91;7123758;27;20310;-79
2022/12/20 09:13:24;;;;;;;20.53;14.40;;;;;;;9.50;57.99;99054.75;7122585;27;20621;-78
2022/12/20 09:16:45;;;;;;;16.57;14.00;;;;;;;9.39;58.19;99038.28;7119648;27;20291;-78
2022/12/20 09:20:08;;;;;;;22.83;15.37;;;;;;;9.51;58.12;99075.25;7127310;27;20587;-82
2022/12/20 09:23:32;;;;;;;22.17;15.57;;;;;;;9.64;57.71;99071.88;7128770;27;20246;-81
2022/12/20 09:26:54;;;;;;;26.17;15.97;;;;;;;10.00;57.22;99065.38;7117967;27;20223;-79
2022/12/20 09:30:16;;;;;;;34.13;18.23;;;;;;;9.91;56.96;99068.38;7129028;27;20252;-79
2022/12/20 09:33:37;;;;;;;37.90;21.00;;;;;;;9.75;56.20;99034.47;7125222;27;20688;-80
2022/12/20 09:36:59;;;;;;;30.70;20.30;;;;;;;9.13;59.02;99063.06;7124696;27;20204;-78
2022/12/20 09:40:23;;;;;;;41.73;20.63;;;;;;;9.46;58.86;99058.03;7127187;27;20229;-79
2022/12/20 09:43:45;;;;;;;31.20;18.63;;;;;;;9.70;59.07;99066.53;7121094;27;20214;-80
2022/12/20 09:47:11;;;;;;;30.13;17.70;;;;;;;10.25;57.04;99045.06;7096915;27;20185;-79
2022/12/20 09:50:41;;;;;;;28.23;17.97;;;;;;;10.23;55.53;99051.66;7099806;27;21739;-79
2022/12/20 09:54:10;;;;;;;30.63;21.00;;;;;;;9.97;56.72;99046.88;7119100;27;20220;-80
2022/12/20 09:57:43;;;;;;;29.20;20.33;;;;;;;10.14;55.97;99015.97;7114396;27;20300;-80
2022/12/20 10:01:16;;;;;;;27.63;20.30;;;;;;;9.94;56.77;99030.28;7089004;27;20228;-80
2022/12/20 10:04:37;;;;;;;37.53;22.33;;;;;;;9.94;56.16;99001.50;7090092;27;20329;-80
2022/12/20 10:08:03;;;;;;;32.83;21.43;;;;;;;10.11;55.78;99005.56;7089353;27;20212;-79
2022/12/20 10:11:49;;;;;;;43.93;27.57;;;;;;;9.62;56.65;99010.13;7090243;27;20230;-80
2022/12/20 10:15:18;;;;;;;28.53;20.90;;;;;;;9.78;56.45;99015.25;7088034;27;20670;-80
2022/12/20 10:18:49;;;;;;;29.13;21.60;;;;;;;10.06;55.90;99004.50;7088810;27;20230;-80
2022/12/20 10:22:14;;;;;;;27.47;20.77;;;;;;;10.19;56.18;99009.97;7117040;27;20463;-81
2022/12/20 10:25:36;;;;;;;37.67;23.47;;;;;;;10.30;55.61;99018.34;7120739;27;20221;-79
2022/12/20 10:28:58;;;;;;;41.10;24.90;;;;;;;9.66;56.67;99005.19;7119754;27;20260;-79
2022/12/20 10:32:23;;;;;;;34.47;23.33;;;;;;;10.22;56.11;99005.03;7117761;27;20208;-79
2022/12/20 10:35:44;;;;;;;32.97;22.83;;;;;;;10.44;54.93;98990.44;7120054;27;20210;-79
2022/12/20 10:39:07;;;;;;;32.13;21.80;;;;;;;10.22;54.77;98975.38;7116015;27;20593;-79
2022/12/20 10:42:37;;;;;;;43.63;30.33;;;;;;;9.52;56.70;98974.63;7119821;27;20708;-80
2022/12/20 10:46:02;;;;;;;35.10;24.80;;;;;;;10.18;55.76;98968.75;7124063;27;20287;-81
2022/12/20 10:49:30;;;;;;;33.30;24.07;;;;;;;9.90;56.40;98975.13;7125314;27;20233;-77
2022/12/20 10:53:06;;;;;;;37.80;25.00;;;;;;;9.87;57.20;98970.97;7119542;27;20187;-79
2022/12/20 10:56:28;;;;;;;36.57;24.33;;;;;;;9.88;56.44;98936.81;7121057;27;20252;-80
2022/12/20 10:59:52;;;;;;;30.13;20.23;;;;;;;9.86;57.25;98976.59;7118858;27;20277;-78
2022/12/20 11:03:17;;;;;;;32.77;23.30;;;;;;;10.21;56.06;98962.94;7121424;27;20231;-80
2022/12/20 11:06:51;;;;;;;33.67;23.30;;;;;;;10.21;55.59;98952.16;7117117;27;20253;-84
2022/12/20 11:10:19;;;;;;;52.87;29.00;;;;;;;10.32;55.89;98946.22;7128956;27;20216;-85
2022/12/20 11:13:41;;;;;;;48.03;25.63;;;;;;;10.04;56.23;98955.41;7128516;27;20220;-82
2022/12/20 11:17:05;;;;;;;35.83;23.33;;;;;;;10.19;56.08;98956.94;7100679;27;20232;-82
2022/12/20 11:20:34;;;;;;;39.53;24.47;;;;;;;10.30;55.53;98942.06;7098456;27;20228;-83
2022/12/20 11:24:10;;;;;;;35.27;22.03;;;;;;;9.96;56.94;98928.56;7116435;27;20208;-83
2022/12/20 11:27:37;;;;;;;29.20;19.40;;;;;;;10.24;57.44;98921.28;7107168;27;20220;-82
2022/12/20 11:31:09;;;;;;;32.17;19.13;;;;;;;10.69;55.59;98940.34;7132840;27;20221;-81
2022/12/20 11:34:38;;;;;;;27.77;19.73;;;;;;;10.80;54.76;98928.97;7134060;27;20602;-81
2022/12/20 11:38:07;;;;;;;26.37;18.60;;;;;;;10.16;56.53;98924.16;7127512;27;20209;-81
2022/12/20 11:41:38;;;;;;;24.93;18.03;;;;;;;10.56;55.71;98923.31;7130080;27;20240;-80
2022/12/20 11:45:05;;;;;;;29.27;19.13;;;;;;;10.61;55.83;98912.72;7128322;27;20225;-80
2022/12/20 11:48:46;;;;;;;32.23;20.73;;;;;;;10.86;55.55;98921.94;7112005;27;20202;-81
2022/12/20 11:52:15;;;;;;;27.60;20.40;;;;;;;10.57;55.34;98919.59;7099241;27;20192;-82
2022/12/20 11:55:40;;;;;;;40.53;26.70;;;;;;;10.27;56.65;98896.66;7092726;27;20219;-79
2022/12/20 11:59:06;;;;;;;41.83;27.37;;;;;;;10.98;55.45;98907.63;7087891;27;20285;-79
2022/12/20 12:02:34;;;;;;;45.87;27.33;;;;;;;11.46;52.97;98892.13;7107622;27;20614;-80
2022/12/20 12:05:59;;;;;;;28.57;20.37;;;;;;;11.07;54.21;98876.75;7124753;27;20206;-82
2022/12/20 12:09:25;;;;;;;25.33;17.40;;;;;;;10.88;54.10;98841.66;7119263;27;20225;-84
2022/12/20 12:12:48;;;;;;;20.07;15.57;;;;;;;10.78;55.68;98868.19;7118512;27;20288;-83
2022/12/20 12:16:14;;;;;;;24.13;16.03;;;;;;;10.98;54.43;98856.38;7125859;27;20302;-80
2022/12/20 12:19:41;;;;;;;21.23;14.80;;;;;;;10.62;56.56;98890.16;7126214;27;20230;-80
2022/12/20 12:23:07;;;;;;;19.93;12.70;;;;;;;9.05;59.76;98823.78;7130056;27;20219;-81
2022/12/20 12:26:36;;;;;;;13.67;11.23;;;;;;;9.98;60.27;98865.38;7107957;27;20206;-81
2022/12/20 12:30:00;;;;;;;14.97;11.87;;;;;;;10.76;57.23;98867.56;7099471;27;20230;-81
2022/12/20 12:33:26;;;;;;;15.10;11.60;;;;;;;10.85;56.34;98875.25;7100226;27;20616;-81
2022/12/20 12:37:32;;;;;;;13.80;11.67;;;;;;;10.92;56.70;98856.41;7102175;27;20199;-81
2022/12/20 12:41:12;;;;;;;16.63;11.97;;;;;;;11.14;56.13;98872.19;7083707;27;20230;-81
2022/12/20 12:44:40;;;;;;;13.53;9.70;;;;;;;11.38;55.58;98854.50;7114171;27;20203;-80
2022/12/20 12:48:05;;;;;;;18.77;12.03;;;;;;;11.02;56.28;98825.25;7132912;27;20194;-81
2022/12/20 12:51:43;;;;;;;15.53;10.73;;;;;;;11.43;55.62;98842.06;7103556;27;20557;-81
2022/12/20 12:55:35;;;;;;;11.77;9.10;;;;;;;11.72;55.06;98852.44;7104619;27;20205;-83
2022/12/20 12:59:10;;;;;;;14.47;9.73;;;;;;;11.35;55.35;98825.25;7125209;27;20229;-84
2022/12/20 13:02:49;;;;;;;15.27;10.43;;;;;;;11.16;56.71;98826.09;7126354;27;20293;-83
2022/12/20 13:06:52;;;;;;;16.63;12.40;;;;;;;11.77;55.52;98828.31;7128169;27;20192;-81
2022/12/20 13:11:05;;;;;;;15.27;12.13;;;;;;;11.72;55.18;98821.88;7059464;27;20223;-82
2022/12/20 13:14:49;;;;;;;14.47;11.23;;;;;;;11.40;56.09;98812.78;7120363;27;20216;-80
2022/12/20 13:18:28;;;;;;;13.97;11.33;;;;;;;11.33;55.94;98811.94;7115999;27;20221;-80
2022/12/20 13:21:59;;;;;;;11.60;9.50;;;;;;;11.49;56.00;98770.19;7121185;27;20259;-81
2022/12/20 13:25:35;;;;;;;9.73;8.73;;;;;;;11.88;54.97;98795.25;7113123;27;20201;-81
2022/12/20 13:29:21;;;;;;;11.30;7.73;;;;;;;11.84;55.22;98807.53;7119720;27;20314;-81
2022/12/20 13:33:12;;;;;;;11.13;8.40;;;;;;;12.00;54.80;98809.75;7110813;27;20276;-81
2022/12/20 13:36:36;;;;;;;12.33;9.93;;;;;;;11.63;55.51;98815.88;7122454;27;20191;-81
2022/12/20 13:40:04;;;;;;;14.97;11.23;;;;;;;10.84;58.43;98816.13;7125954;27;20724;-81
2022/12/20 13:43:28;;;;;;;14.77;11.93;;;;;;;11.27;56.74;98739.13;7109304;27;20233;-81
2022/12/20 13:46:52;;;;;;;10.03;8.23;;;;;;;12.20;55.00;98813.19;7089557;27;20199;-81
2022/12/20 13:50:24;;;;;;;17.83;12.50;;;;;;;11.88;55.03;98810.63;7119535;27;20238;-81
2022/12/20 13:53:52;;;;;;;51.07;30.50;;;;;;;11.48;55.76;98801.78;7109090;27;20267;-81
2022/12/20 13:57:17;;;;;;;32.23;21.63;;;;;;;11.57;55.58;98808.59;7124042;27;20279;-81
2022/12/20 14:00:47;;;;;;;33.97;23.03;;;;;;;11.89;54.39;98793.34;7124136;27;20278;-81
2022/12/20 14:04:10;;;;;;;24.77;18.37;;;;;;;11.68;54.43;98764.75;7124361;27;20238;-81
2022/12/20 14:07:33;;;;;;;28.07;20.07;;;;;;;11.73;54.71;98788.41;7123351;27;20229;-81
2022/12/20 14:10:55;;;;;;;26.60;19.83;;;;;;;11.38;55.21;98785.16;7124394;27;20225;-81
2022/12/20 14:14:18;;;;;;;27.53;20.87;;;;;;;10.85;55.55;98658.66;7124006;27;20244;-81
2022/12/20 14:17:39;;;;;;;29.13;21.87;;;;;;;11.49;54.74;98732.38;7124020;27;20195;-81
2022/12/20 14:21:04;;;;;;;26.53;20.53;;;;;;;11.64;55.29;98768.09;7121174;27;20211;-83
2022/12/20 14:24:25;;;;;;;23.23;16.67;;;;;;;11.81;55.31;98759.31;7117452;27;20219;-82
2022/12/20 14:27:47;;;;;;;23.10;17.63;;;;;;;11.85;54.05;98735.38;7106591;27;20254;-82
2022/12/20 14:31:23;;;;;;;133.93;53.37;;;;;;;11.84;54.84;98745.38;7117653;27;20289;-82
2022/12/20 14:34:46;;;;;;;34.47;20.57;;;;;;;12.13;54.44;98758.34;7118012;27;20222;-82
2022/12/20 14:38:21;;;;;;;31.57;18.60;;;;;;;12.26;53.72;98746.59;7118784;27;20646;-82
2022/12/20 14:41:44;;;;;;;18.47;12.47;;;;;;;12.29;53.70;98748.91;7097960;27;20223;-82
2022/12/20 14:45:16;;;;;;;19.80;14.03;;;;;;;12.01;53.58;98714.13;7108493;27;20229;-81
2022/12/20 14:48:40;;;;;;;9.73;8.20;;;;;;;12.26;53.37;98744.75;7094423;27;20220;-81
2022/12/20 14:52:11;;;;;;;10.73;6.73;;;;;;;10.71;57.47;98751.41;7095040;27;20200;-81
2022/12/20 14:55:35;;;;;;;9.53;7.40;;;;;;;11.43;56.61;98747.56;7109327;27;20229;-80
2022/12/20 14:59:11;;;;;;;9.03;7.57;;;;;;;11.79;55.28;98742.50;7123774;27;20236;-80
2022/12/20 15:02:36;;;;;;;10.03;6.67;;;;;;;12.07;54.64;98756.50;7122342;27;20258;-81
2022/12/20 15:06:00;;;;;;;9.17;6.40;;;;;;;11.76;54.15;98699.69;7121560;27;20226;-81
2022/12/20 15:09:22;;;;;;;10.17;7.07;;;;;;;11.79;54.02;98729.00;7121080;27;20218;-80
2022/12/20 15:12:45;;;;;;;10.10;6.73;;;;;;;11.89;54.02;98740.16;7121591;27;20202;-81
2022/12/20 15:16:15;;;;;;;11.10;7.03;;;;;;;11.74;54.19;98733.38;7121385;27;20214;-81
2022/12/20 15:19:37;;;;;;;12.47;6.93;;;;;;;11.05;56.35;98725.00;7119678;27;20257;-82
2022/12/20 15:23:00;;;;;;;9.20;6.80;;;;;;;11.28;55.66;98713.78;7118034;27;20218;-82
2022/12/20 15:26:24;;;;;;;10.43;6.63;;;;;;;11.33;55.61;98705.88;7096634;27;20202;-81
2022/12/20 15:29:46;;;;;;;9.47;7.30;;;;;;;10.91;56.94;98730.63;7089160;27;20325;-81
2022/12/20 15:33:15;;;;;;;9.57;7.07;;;;;;;11.27;55.76;98704.03;7099145;27;20317;-82
2022/12/20 15:36:37;;;;;;;8.43;6.67;;;;;;;11.37;55.01;98720.59;7088689;27;20260;-82
2022/12/20 15:40:00;;;;;;;8.13;6.10;;;;;;;10.90;55.60;98688.53;7088687;27;20227;-82
2022/12/20 15:43:22;;;;;;;12.50;6.97;;;;;;;11.23;56.02;98727.06;7093044;27;20218;-82
2022/12/20 15:46:44;;;;;;;6.83;6.00;;;;;;;11.08;55.91;98719.22;7111612;27;20281;-82
2022/12/20 15:50:07;;;;;;;11.37;6.67;;;;;;;11.40;55.40;98737.19;7115547;27;20690;-82
2022/12/20 15:53:32;;;;;;;9.20;7.23;;;;;;;11.43;55.03;98734.06;7114599;27;20278;-82
2022/12/20 15:56:56;;;;;;;10.10;6.83;;;;;;;10.94;56.25;98738.31;7087938;27;20192;-82
2022/12/20 16:00:18;;;;;;;10.10;7.30;;;;;;;9.99;58.25;98704.63;7116844;27;20259;-82
2022/12/20 16:03:40;;;;;;;10.47;7.43;;;;;;;10.74;57.38;98727.53;7118483;27;20228;-82
2022/12/20 16:07:02;;;;;;;6.33;5.63;;;;;;;10.94;56.50;98714.03;7117866;27;20266;-82
2022/12/20 16:10:23;;;;;;;8.13;6.93;;;;;;;10.85;56.43;98735.00;7119017;27;20682;-82
2022/12/20 16:13:52;;;;;;;9.03;6.43;;;;;;;10.23;57.75;98674.44;7116757;27;20688;-83
2022/12/20 16:17:15;;;;;;;7.67;5.83;;;;;;;10.78;57.17;98715.31;7103503;27;20571;-83
2022/12/20 16:20:37;;;;;;;8.33;6.93;;;;;;;10.62;57.63;98707.63;7104667;27;20709;-83
2022/12/20 16:23:59;;;;;;;8.93;7.93;;;;;;;10.58;57.63;98719.03;7104787;27;20479;-83
2022/12/20 16:31:37;;;;;;;11.57;8.00;;;;;;;11.20;55.71;98728.31;7104807;27;20232;-84